KSJC

Norman Y Mineta San Jose International Airport

San Jose, California, USA
KSJC 212325Z 2200/2224 32012KT P6SM FEW035 FM220200 31007KT P6SM FEW040 FM220700 31005KT P6SM SKC FM221500 28005KT P6SM FEW250 FM222000 31005KT P6SM FEW250
Issued Valid From Valid To
Jan-21 @ 23:25 UTC
(2 hours ago)
Jan-22 @ 00:00 UTC
(57 minutes ago)
Jan-23 @ 00:00 UTC
(in 23 hours)
Jan-22 @ 00:00 to Jan-22 @ 02:00
KSJC 212325Z 2200/2224 32012KT P6SM FEW035
Wind Visibility Clouds
320° at 12 knots Greater than 6 miles
  • Few at 3,500' AGL
From Jan-22 @ 02:00 to Jan-22 @ 07:00
FM220200 31007KT P6SM FEW040
Wind Visibility Clouds
310° at 7 knots Greater than 6 miles
  • Few at 4,000' AGL
From Jan-22 @ 07:00 to Jan-22 @ 15:00
FM220700 31005KT P6SM SKC
Wind Visibility Clouds
310° at 5 knots Greater than 6 miles
  • Clear skies
From Jan-22 @ 15:00 to Jan-22 @ 20:00
FM221500 28005KT P6SM FEW250
Wind Visibility Clouds
280° at 5 knots Greater than 6 miles
  • Few at 25,000' AGL
From Jan-22 @ 20:00 to Jan-23 @ 00:00
FM222000 31005KT P6SM FEW250
Wind Visibility Clouds
310° at 5 knots Greater than 6 miles
  • Few at 25,000' AGL
KSJC 212325Z 2200/2224 32012KT P6SM FEW035 FM220200 31007KT P6SM FEW040 FM220700 31005KT P6SM SKC FM221500 28005KT P6SM FEW250 FM222000 31005KT P6SM FEW250
Issued Jan-21 @ 23:25 UTC
(2 hours ago)
Valid From Jan-22 @ 00:00 UTC
(57 minutes ago)
Valid To Jan-23 @ 00:00 UTC
(in 23 hours)
Jan-22 @ 00:00 - Jan-22 @ 02:00
Wind Visibility
320° at 12 knots Greater than 6 miles
Clouds
  • Few at 3,500' AGL
From Jan-22 @ 02:00 - Jan-22 @ 07:00
Wind Visibility
310° at 7 knots Greater than 6 miles
Clouds
  • Few at 4,000' AGL
From Jan-22 @ 07:00 - Jan-22 @ 15:00
Wind Visibility
310° at 5 knots Greater than 6 miles
Clouds
  • Clear skies
From Jan-22 @ 15:00 - Jan-22 @ 20:00
Wind Visibility
280° at 5 knots Greater than 6 miles
Clouds
  • Few at 25,000' AGL
From Jan-22 @ 20:00 - Jan-23 @ 00:00
Wind Visibility
310° at 5 knots Greater than 6 miles
Clouds
  • Few at 25,000' AGL